Rechercher aéroport 
image banner adimage banner adimage banner ad
image banner ad

KZER - Schuylkill County /Joe Zerbey

Situé à Pottsville, United States

ICAO - ZER, IATA -

Données fournies par Airmate  

Information générale

Coordonnées: N40°42'24" W76°22'23"
Élévation : 1729 feet MSL.
Variation magnétique : -12° East
Voir autres Aéroports à Pennsylvania

Données opérationnelles

Special qualification required
Heure actuelle UTC:
Heure actuelle locale:
METAR: KMUI 150556Z AUTO 00000KT 10SM CLR 17/15 A2980 RMK AO2 SLP091 60018 T01670152 10178 20160 50002
TAF: TAF AMD KMUI 142000Z 1420/1601 VRB06KT 9999 FEW030 FEW050 QNH2975INS TEMPO 1421/1424 27025G35KT 4800 TSRAGR BKN035CB OVC050 BECMG 1423/1424 VRB06KT 6000 -SHRA FEW035 BKN050 OVC075 QNH2977INS TEMPO 1500/1506 25015G35KT 4800 TSRA BKN040CB OVC050 BECMG 1508/1509 VRB06KT 6000 BR BKN015 OVC030 QNH2973INS BECMG 1511/1512 32010G15KT 9999 NSW FEW020 BKN040 QNH2976INS TEMPO 1516/1520 30012G25KT 8000 -TSRA BKN040CB BECMG 1521/1522 33009KT 9999 SCT040 QNH2976INS TX31/1420Z TN18/1510Z LAST NO AMDS AFT 1505 NEXT 1511
Voir NOTAMs / SUP AIP / TFR affectant cet aéroport [VIEW]
Fréquences de communication: [VIEW]

Pistes:

Identifiant RWYQFULongueur (ft)Largeur (ft)SurfaceLDA (ft)
0431°2523140GRASS
22211°2523140GRASS
1198°459975ASPH
29278°459975ASPH

Coordonnées de l'aéroport

Adresse: Pottsville United States

Vue satellite de KZER